Weather at Haugesund Heliport, Haugesund Hospital

Public forecast

Using degrees Celsius for public forecast. Weather courtesy of forecast.io.

Closest aviation weather report (METAR) to Haugesund Heliport, Haugesund Hospital

Report is more than 6 hours old.

Closest report is Haugesund Airport, Karm√ły, 4.4 nm (8.1 km) SSW.

2022/11/14 15:20 (retrieved 2 years ago)

ENHD 141520Z 36005KT CAVOK 11/09 Q1015

Closest aviation forecast (TAF) to Haugesund Heliport, Haugesund Hospital

Forecast is more than 12 hours old.

Closest forecast is Stavanger Airport, Sola, 33.8 nm (62.6 km) SSE.

2023/02/22 18:36 (retrieved 1 year ago)

TAF ENZV 221700Z 2218/2318 15008KT 9999 -RA FEW007 BKN015 BECMG 2218/2220 BKN012 TEMPO 2218/2224 3000 RADZ BR BKN004 BECMG 2222/2302 35025KT FEW015 SCT030 BECMG 2308/2310 35015KT BECMG 2312/2314 VRB05KT BECMG 2316/2318 17015KT BKN012